Angelo Coast Range Reserve, California Weather observations

Data are for 10 minute period ending at time listed.
 Day   Time   Solar   Ave.   Ave.  Ave.  Vector  Max.   Baro.   Total    
  of    of     Rad.   Air    Rel.  Wind   Wind   Wind  Press.  Precip.   
Year   Day            Temp.  Hum.  Speed  Dir.   Gust                    
2016   (PST)  Kw/m2    F      %     mph   deg.    mph    mb.     in.     
-------------------------------------------------------------------------
 211   16:20   0.41   95.5    14    2.3   184     9.6   959.7    0.00 
 211   16:30   0.12   93.9    16    0.6   253     2.1   959.6    0.00 
 211   16:40   0.33   94.7    13    1.4   174     5.0   959.5    0.00 
 211   16:50   0.30   94.9    10    2.9   156     9.0   959.5    0.00 
 211   17:00   0.23   95.0    11    4.1   167     7.0   959.4    0.00 
 211   17:10   0.35   93.5    13    4.2   168     7.8   959.3    0.00 
 211   17:20   0.17   92.2    16    4.2   167     7.8   959.3    0.00 
 211   17:30   0.04   90.4    18    3.0   182     7.2   959.2    0.00 
 211   17:40   0.03   88.9    21    2.0   198     5.0   959.2    0.00 
 211   17:50   0.03   87.8    23    1.6   203     4.3   959.3    0.00 
 211   18:00   0.03   87.1    25    1.0   243     1.7   959.3    0.00 
 211   18:10   0.03   86.8    25    0.1   229     0.6   959.3    0.00 
 211   18:20   0.03   86.3    26    0.0     0     0.0   959.4    0.00 
 211   18:30   0.03   85.2    28    0.0     0     0.0   959.4    0.00 
 211   18:40   0.01   83.8    30    0.0     0     0.0   959.4    0.00 
 211   18:50   0.01   82.4    32    0.0     0     0.0   959.5    0.00 
 211   19:00   0.01   81.0    34    0.0     0     0.0   959.5    0.00 
 211   19:10   0.01   79.9    37    0.0     0     0.0   959.6    0.00 
 211   19:20   0.01   78.9    37    1.1   174     2.0   959.6    0.00 
 211   19:30   0.00   78.2    34    0.8   175     1.5   959.6    0.00 
 211   19:40   0.00   77.2    34    0.2   177     1.0   959.8    0.00 
 211   19:50   0.00   76.6    34    0.7   177     1.2   959.9    0.00 
 211   20:00   0.00   75.6    36    1.0   178     1.4   959.9    0.00 
 211   20:10   0.00   74.8    38    0.6   177     1.7   959.9    0.00 
 211   20:20   0.00   74.2    38    1.3   171     1.8   960.0    0.00 
 211   20:30   0.00   73.5    38    0.2   182     1.3   960.1    0.00 
 211   20:40   0.00   72.9    39    1.2   168     1.8   960.1    0.00 
 211   20:50   0.00   72.3    40    0.5   173     1.6   960.1    0.00 
 211   21:00   0.00   71.7    42    0.3   193     1.2   960.2    0.00 
 211   21:10   0.00   71.3    41    1.0   170     1.4   960.3    0.00 
 211   21:20   0.00   70.9    43    0.2   181     0.9   960.3    0.00 
 211   21:30   0.00   70.2    44    0.0     0     0.0   960.2    0.00 
 211   21:40   0.00   69.6    45    0.1   185     0.9   960.1    0.00 
 211   21:50   0.00   69.2    46    0.3   185     1.1   960.1    0.00 
 211   22:00   0.00   68.7    47    0.1   185     1.1   960.1    0.00 
 211   22:10   0.00   68.4    47    0.5   186     1.0   960.0    0.00 
 211   22:20   0.00   68.0    46    0.2   180     1.1   960.0    0.00 
 211   22:30   0.00   67.6    47    0.6   159     1.5   959.9    0.00 
 211   22:40   0.00   67.4    48    0.2   165     1.2   959.8    0.00 
 211   22:50   0.00   66.8    48    0.1   190     0.7   959.8    0.00 
 211   23:00   0.00   66.5    46    0.4   187     1.4   959.9    0.00 
 211   23:10   0.00   66.1    47    0.4   182     1.9   959.9    0.00 
 211   23:20   0.00   65.8    47    0.4   176     1.2   959.9    0.00 
 211   23:30   0.00   65.6    46    0.2   184     0.9   959.9    0.00 
 211   23:40   0.00   65.1    48    0.0   184     0.6   959.8    0.00 
 211   23:50   0.00   64.7    49    0.1   184     0.9   959.8    0.00 
 212    0:00   0.00   64.4    51    0.0     0     0.0   959.8    0.00 
 212    0:10   0.00   64.3    52    0.1   172     0.8   959.7    0.00 
 212    0:20   0.00   64.1    51    0.0     0     0.0   959.6    0.00 
 212    0:30   0.00   63.4    52    0.0   189     0.6   959.5    0.00 
 212    0:40   0.00   63.3    53    0.0   189     0.6   959.4    0.00 
 212    0:50   0.00   62.9    54    0.0     0     0.0   959.3    0.00 
 212    1:00   0.00   62.6    54    0.0   200     0.6   959.2    0.00 
 212    1:10   0.00   62.4    54    0.3   184     0.9   959.2    0.00 
 212    1:20   0.00   62.2    55    0.1   184     0.9   959.2    0.00 
 212    1:30   0.00   61.8    55    0.4   181     1.2   959.0    0.00 
 212    1:40   0.00   61.8    55    0.1   189     0.8   958.9    0.00 
 212    1:50   0.00   61.6    56    0.3   186     1.3   958.9    0.00 
 212    2:00   0.00   61.2    57    0.0     0     0.0   958.9    0.00 
 212    2:10   0.00   60.8    60    0.0     0     0.0   958.8    0.00 
 212    2:20   0.00   60.4    60    0.0     0     0.0   958.7    0.00 
 212    2:30   0.00   60.0    62    0.0     0     0.0   958.7    0.00 
 212    2:40   0.00   59.9    62    0.2   192     1.0   958.7    0.00 
 212    2:50   0.00   60.1    62    0.4   183     1.2   958.6    0.00 
 212    3:00   0.00   60.0    61    0.0     0     0.0   958.7    0.00 
 212    3:10   0.00   59.3    64    0.0     0     0.0   958.7    0.00 
 212    3:20   0.00   59.2    65    0.7   170     1.5   958.6    0.00 
 212    3:30   0.00   59.0    65    0.0     0     0.0   958.6    0.00 
 212    3:40   0.00   58.7    68    0.0     0     0.0   958.5    0.00 
 212    3:50   0.00   58.5    69    0.2   169     0.9   958.4    0.00 
 212    4:00   0.00   58.2    69    0.0     0     0.0   958.4    0.00 
 212    4:10   0.00   57.9    70    0.4   173     1.3   958.5    0.00 
 212    4:20   0.00   57.9    68    0.2   186     0.9   958.5    0.00 
 212    4:30   0.00   57.8    68    0.0   198     0.6   958.5    0.00 
 212    4:40   0.00   57.7    70    0.0     0     0.0   958.5    0.00 
 212    4:50   0.00   57.3    71    0.1   180     1.1   958.6    0.00 
 212    5:00   0.00   56.9    71    0.1   173     1.2   958.6    0.00 
 212    5:10   0.00   56.7    72    0.0     0     0.0   958.7    0.00 
 212    5:20   0.00   56.6    73    0.0     0     0.0   958.8    0.00 
 212    5:30   0.00   56.8    71    1.3   183     1.9   958.8    0.00 
 212    5:40   0.01   56.8    71    0.7   174     1.8   959.0    0.00 
 212    5:50   0.01   56.9    72    0.8   171     2.2   959.0    0.00 
 212    6:00   0.01   56.8    72    0.0     0     0.0   959.0    0.00 
 212    6:10   0.01   56.7    73    0.0     0     0.0   959.1    0.00 
 212    6:20   0.01   56.7    73    0.0     0     0.0   959.1    0.00 
 212    6:30   0.01   56.8    72    0.8   171     1.8   959.2    0.00 
 212    6:40   0.01   56.9    73    1.3   178     2.1   959.3    0.00 
 212    6:50   0.01   56.9    73    1.3   182     2.0   959.4    0.00 
 212    7:00   0.02   57.0    73    1.8   170     2.1   959.3    0.00 
 212    7:10   0.03   57.3    73    0.9   164     1.8   959.3    0.00 
 212    7:20   0.03   57.8    72    0.0     0     0.0   959.3    0.00 
 212    7:30   0.03   58.7    68    0.0   164     0.4   959.4    0.00 
 212    7:40   0.03   59.9    62    0.0     0     0.0   959.4    0.00 
 212    7:50   0.04   61.2    60    0.0     0     0.0   959.5    0.00 
 212    8:00   0.04   62.6    56    0.0     0     0.0   959.5    0.00 
 212    8:10   0.33   64.5    54    0.1   101     1.1   959.6    0.00 
 212    8:20   0.48   69.8    47    0.2   101     1.0   959.7    0.00 
 212    8:30   0.50   74.4    41    0.6    85     1.4   959.8    0.00 
 212    8:40   0.54   74.9    41    1.1    96     1.7   959.9    0.00 
 212    8:50   0.51   76.7    40    1.2    98     1.9   959.9    0.00 
 212    9:00   0.34   77.9    39    1.8    95     2.3   959.9    0.00 
 212    9:10   0.17   78.5    38    1.8    97     2.4   959.9    0.00 
 212    9:20   0.21   79.4    37    1.4    94     2.2   959.8    0.00 
 212    9:30   0.65   80.9    35    1.0    96     2.2   959.8    0.00 
 212    9:40   0.68   82.4    33    1.4    95     2.4   959.8    0.00 
 212    9:50   0.72   84.8    30    2.4    95     5.7   959.7    0.00 
 212   10:00   0.75   86.6    30    2.0   109     4.8   959.6    0.00 
 212   10:10   0.77   88.7    26    3.0   107     6.9   959.5    0.00 
 212   10:20   0.79   89.8    26    4.0   118     7.9   959.4    0.00 
 212   10:30   0.80   91.4    24    5.3   150    10.4   959.4    0.00 
 212   10:40   0.82   92.5    24    4.9   147     8.2   959.4    0.00 
 212   10:50   0.84   94.0    23    3.1   142     6.1   959.3    0.00 
 212   11:00   0.85   94.4    23    5.2   146    10.5   959.3    0.00 
 212   11:10   0.86   93.9    22    6.0   153    10.2   959.3    0.00 
 212   11:20   0.87   94.0    22    6.0   144    13.7   959.4    0.00 
 212   11:30   0.88   93.5    22    7.8   148    11.5   959.4    0.00 
 212   11:40   0.88   93.5    22    6.6   127    12.1   959.3    0.00 
 212   11:50   0.88   93.9    22    7.7   138    15.1   959.3    0.00 
 212   12:00   0.89   93.7    22    7.7   140    14.5   959.3    0.00 
 212   12:10   0.89   93.6    22    9.0   151    15.1   959.2    0.00 
 212   12:20   0.89   93.9    22    8.0   141    14.5   959.3    0.00 
 212   12:30   0.90   93.7    22    8.7   154    16.1   959.3    0.00 
 212   12:40   0.89   94.6    22    5.8   135    11.6   959.3    0.00 
 212   12:50   0.89   93.9    23    7.7   142    15.7   959.4    0.00 
 212   13:00   0.88   93.6    23    8.2   146    13.9   959.5    0.00 
 212   13:10   0.88   92.9    23    7.8   146    15.9   959.5    0.00 
 212   13:20   0.88   92.2    22   10.8   156    16.4   959.5    0.00 
 212   13:30   0.86   91.9    25    7.7   147    15.9   959.5    0.00 
 212   13:40   0.81   91.5    25    9.3   157    14.9   959.6    0.00 
 212   13:50   0.84   91.8    25    7.7   142    13.2   959.6    0.00 
 212   14:00   0.83   91.5    26    6.5   138    12.6   959.6    0.00 
 212   14:10   0.82   91.4    25    6.2   137    14.0   959.5    0.00 
 212   14:20   0.81   91.8    24    7.7   143    13.0   959.5    0.00 
 212   14:30   0.79   91.6    24    7.6   145    13.6   959.5    0.00 
 212   14:40   0.77   92.2    23    7.4   150    15.1   959.4    0.00 
 212   14:50   0.74   92.2    23    7.5   148    14.5   959.3    0.00 
 212   15:00   0.73   92.1    22    7.4   144    15.7   959.2    0.00 
 212   15:10   0.70   91.8    22    6.8   144    15.1   959.1    0.00 
 212   15:20   0.68   90.9    23    8.6   151    14.6   959.1    0.00 
 212   15:30   0.65   90.7    22    8.1   145    13.7   959.1    0.00 
 212   15:40   0.62   91.4    21    6.4   157    11.2   959.2    0.00 
 212   15:50   0.60   91.0    20    6.5   152    13.4   959.2    0.00 
 212   16:00   0.57   91.3    19    5.9   169    11.5   959.2    0.00 
 212   16:10   0.54   91.8    18    4.5   167     9.6   959.1    0.00 

Return to Angelo Coast Range Reserve graphs page.


Western Regional Climate Center,wrcc@dri.edu